sensor_id;sensor_type;location;lat;lon;timestamp;P1;durP1;ratioP1;P2;durP2;ratioP2
75818;SDS011;64453;51.944;9.796;2023-03-23T00:01:25;0.80;;;0.80;;
75818;SDS011;64453;51.944;9.796;2023-03-23T00:03:57;1.07;;;0.97;;
75818;SDS011;64453;51.944;9.796;2023-03-23T00:06:25;1.07;;;1.00;;
75818;SDS011;64453;51.944;9.796;2023-03-23T00:08:58;1.60;;;1.43;;
75818;SDS011;64453;51.944;9.796;2023-03-23T00:11:27;0.97;;;0.90;;
75818;SDS011;64453;51.944;9.796;2023-03-23T00:13:56;1.07;;;1.03;;
75818;SDS011;64453;51.944;9.796;2023-03-23T00:16:26;0.90;;;0.90;;
75818;SDS011;64453;51.944;9.796;2023-03-23T00:18:59;2.50;;;0.80;;
75818;SDS011;64453;51.944;9.796;2023-03-23T00:21:29;0.90;;;0.70;;
75818;SDS011;64453;51.944;9.796;2023-03-23T00:24:00;3.50;;;1.30;;
75818;SDS011;64453;51.944;9.796;2023-03-23T00:26:29;1.23;;;1.13;;
75818;SDS011;64453;51.944;9.796;2023-03-23T00:28:59;2.20;;;1.30;;
75818;SDS011;64453;51.944;9.796;2023-03-23T00:31:27;1.53;;;1.13;;
75818;SDS011;64453;51.944;9.796;2023-03-23T00:33:57;1.20;;;1.10;;
75818;SDS011;64453;51.944;9.796;2023-03-23T00:36:28;1.13;;;0.80;;
75818;SDS011;64453;51.944;9.796;2023-03-23T00:38:56;1.13;;;1.13;;
75818;SDS011;64453;51.944;9.796;2023-03-23T00:41:25;1.90;;;1.50;;
75818;SDS011;64453;51.944;9.796;2023-03-23T00:43:53;1.17;;;0.70;;
75818;SDS011;64453;51.944;9.796;2023-03-23T00:46:21;1.10;;;1.00;;
75818;SDS011;64453;51.944;9.796;2023-03-23T00:48:48;1.60;;;1.20;;
75818;SDS011;64453;51.944;9.796;2023-03-23T00:51:17;1.20;;;0.97;;
75818;SDS011;64453;51.944;9.796;2023-03-23T00:53:44;1.60;;;1.07;;
75818;SDS011;64453;51.944;9.796;2023-03-23T00:56:12;1.83;;;1.17;;
75818;SDS011;64453;51.944;9.796;2023-03-23T00:58:40;1.23;;;0.90;;
75818;SDS011;64453;51.944;9.796;2023-03-23T01:01:07;1.93;;;1.20;;
75818;SDS011;64453;51.944;9.796;2023-03-23T01:03:35;0.90;;;0.90;;
75818;SDS011;64453;51.944;9.796;2023-03-23T01:06:06;1.20;;;1.10;;
75818;SDS011;64453;51.944;9.796;2023-03-23T01:08:38;2.50;;;1.70;;
75818;SDS011;64453;51.944;9.796;2023-03-23T01:11:10;1.37;;;1.20;;
75818;SDS011;64453;51.944;9.796;2023-03-23T01:13:40;1.10;;;1.00;;
75818;SDS011;64453;51.944;9.796;2023-03-23T01:16:07;1.47;;;1.03;;
75818;SDS011;64453;51.944;9.796;2023-03-23T01:18:35;1.43;;;1.07;;
75818;SDS011;64453;51.944;9.796;2023-03-23T01:21:03;1.47;;;0.80;;
75818;SDS011;64453;51.944;9.796;2023-03-23T01:23:31;0.87;;;0.87;;
75818;SDS011;64453;51.944;9.796;2023-03-23T01:26:03;1.43;;;1.33;;
75818;SDS011;64453;51.944;9.796;2023-03-23T01:28:32;1.20;;;1.10;;
75818;SDS011;64453;51.944;9.796;2023-03-23T01:31:00;1.90;;;0.97;;
75818;SDS011;64453;51.944;9.796;2023-03-23T01:33:28;1.10;;;0.83;;
75818;SDS011;64453;51.944;9.796;2023-03-23T01:35:55;1.60;;;1.03;;
75818;SDS011;64453;51.944;9.796;2023-03-23T01:38:22;1.40;;;0.93;;
75818;SDS011;64453;51.944;9.796;2023-03-23T01:40:50;0.87;;;0.83;;
75818;SDS011;64453;51.944;9.796;2023-03-23T01:43:18;1.93;;;1.03;;
75818;SDS011;64453;51.944;9.796;2023-03-23T01:45:45;1.67;;;1.17;;
75818;SDS011;64453;51.944;9.796;2023-03-23T01:48:13;0.87;;;0.77;;
75818;SDS011;64453;51.944;9.796;2023-03-23T01:50:47;1.60;;;1.10;;
75818;SDS011;64453;51.944;9.796;2023-03-23T01:53:20;1.97;;;1.10;;
75818;SDS011;64453;51.944;9.796;2023-03-23T01:55:49;1.03;;;0.93;;
75818;SDS011;64453;51.944;9.796;2023-03-23T01:58:21;1.43;;;0.93;;
75818;SDS011;64453;51.944;9.796;2023-03-23T02:00:52;0.77;;;0.77;;
75818;SDS011;64453;51.944;9.796;2023-03-23T02:03:21;0.90;;;0.90;;
75818;SDS011;64453;51.944;9.796;2023-03-23T02:05:48;1.43;;;1.00;;
75818;SDS011;64453;51.944;9.796;2023-03-23T02:08:17;1.40;;;1.07;;
75818;SDS011;64453;51.944;9.796;2023-03-23T02:10:45;1.57;;;1.37;;
75818;SDS011;64453;51.944;9.796;2023-03-23T02:13:12;0.90;;;0.90;;
75818;SDS011;64453;51.944;9.796;2023-03-23T02:15:43;1.17;;;1.00;;
75818;SDS011;64453;51.944;9.796;2023-03-23T02:18:23;1.53;;;1.00;;
75818;SDS011;64453;51.944;9.796;2023-03-23T02:21:07;2.17;;;1.10;;
75818;SDS011;64453;51.944;9.796;2023-03-23T02:24:30;1.27;;;1.07;;
75818;SDS011;64453;51.944;9.796;2023-03-23T02:27:27;0.70;;;0.70;;
75818;SDS011;64453;51.944;9.796;2023-03-23T02:30:33;1.17;;;1.03;;
75818;SDS011;64453;51.944;9.796;2023-03-23T02:33:34;1.07;;;0.90;;
75818;SDS011;64453;51.944;9.796;2023-03-23T02:36:10;0.90;;;0.90;;
75818;SDS011;64453;51.944;9.796;2023-03-23T02:38:44;1.20;;;1.20;;
75818;SDS011;64453;51.944;9.796;2023-03-23T02:41:22;0.97;;;0.93;;
75818;SDS011;64453;51.944;9.796;2023-03-23T02:43:54;1.13;;;1.13;;
75818;SDS011;64453;51.944;9.796;2023-03-23T02:46:23;0.97;;;0.97;;
75818;SDS011;64453;51.944;9.796;2023-03-23T02:48:53;1.20;;;1.10;;
75818;SDS011;64453;51.944;9.796;2023-03-23T02:51:22;1.47;;;1.37;;
75818;SDS011;64453;51.944;9.796;2023-03-23T02:53:51;1.10;;;1.07;;
75818;SDS011;64453;51.944;9.796;2023-03-23T02:56:21;1.77;;;1.20;;
75818;SDS011;64453;51.944;9.796;2023-03-23T02:58:52;2.80;;;1.20;;
75818;SDS011;64453;51.944;9.796;2023-03-23T03:04:24;1.53;;;1.13;;
75818;SDS011;64453;51.944;9.796;2023-03-23T03:07:01;1.93;;;1.50;;
75818;SDS011;64453;51.944;9.796;2023-03-23T03:09:50;1.23;;;1.13;;
75818;SDS011;64453;51.944;9.796;2023-03-23T03:12:24;1.37;;;1.20;;
75818;SDS011;64453;51.944;9.796;2023-03-23T03:15:05;1.40;;;1.30;;
75818;SDS011;64453;51.944;9.796;2023-03-23T03:17:40;1.27;;;1.10;;
75818;SDS011;64453;51.944;9.796;2023-03-23T03:20:12;1.17;;;1.07;;
75818;SDS011;64453;51.944;9.796;2023-03-23T03:22:41;1.10;;;1.00;;
75818;SDS011;64453;51.944;9.796;2023-03-23T03:25:11;1.20;;;1.13;;
75818;SDS011;64453;51.944;9.796;2023-03-23T03:27:40;2.03;;;1.40;;
75818;SDS011;64453;51.944;9.796;2023-03-23T03:30:14;1.20;;;1.10;;
75818;SDS011;64453;51.944;9.796;2023-03-23T03:32:46;1.33;;;1.17;;
75818;SDS011;64453;51.944;9.796;2023-03-23T03:35:17;1.30;;;1.20;;
75818;SDS011;64453;51.944;9.796;2023-03-23T03:37:45;1.10;;;1.10;;
75818;SDS011;64453;51.944;9.796;2023-03-23T03:40:13;1.03;;;1.00;;
75818;SDS011;64453;51.944;9.796;2023-03-23T03:42:43;1.47;;;1.20;;
75818;SDS011;64453;51.944;9.796;2023-03-23T03:45:11;1.80;;;1.30;;
75818;SDS011;64453;51.944;9.796;2023-03-23T03:47:40;1.40;;;0.83;;
75818;SDS011;64453;51.944;9.796;2023-03-23T03:50:07;1.37;;;1.13;;
75818;SDS011;64453;51.944;9.796;2023-03-23T03:52:37;1.10;;;1.10;;
75818;SDS011;64453;51.944;9.796;2023-03-23T03:55:05;1.87;;;1.17;;
75818;SDS011;64453;51.944;9.796;2023-03-23T03:57:35;1.20;;;1.20;;
75818;SDS011;64453;51.944;9.796;2023-03-23T04:00:02;2.30;;;1.23;;
75818;SDS011;64453;51.944;9.796;2023-03-23T04:02:39;1.27;;;1.10;;
75818;SDS011;64453;51.944;9.796;2023-03-23T04:05:12;1.47;;;1.37;;
75818;SDS011;64453;51.944;9.796;2023-03-23T04:07:41;1.80;;;1.70;;
75818;SDS011;64453;51.944;9.796;2023-03-23T04:10:09;1.30;;;1.20;;
75818;SDS011;64453;51.944;9.796;2023-03-23T04:12:38;1.80;;;1.27;;
75818;SDS011;64453;51.944;9.796;2023-03-23T04:15:06;0.90;;;0.90;;
75818;SDS011;64453;51.944;9.796;2023-03-23T04:17:34;2.50;;;1.20;;
75818;SDS011;64453;51.944;9.796;2023-03-23T04:20:01;1.50;;;1.17;;
75818;SDS011;64453;51.944;9.796;2023-03-23T04:22:33;1.73;;;1.10;;
75818;SDS011;64453;51.944;9.796;2023-03-23T04:25:01;1.00;;;1.00;;
75818;SDS011;64453;51.944;9.796;2023-03-23T04:27:31;1.57;;;1.07;;
75818;SDS011;64453;51.944;9.796;2023-03-23T04:29:58;2.13;;;1.20;;
75818;SDS011;64453;51.944;9.796;2023-03-23T04:32:25;1.47;;;1.03;;
75818;SDS011;64453;51.944;9.796;2023-03-23T04:34:53;1.13;;;1.03;;
75818;SDS011;64453;51.944;9.796;2023-03-23T04:37:21;0.97;;;0.97;;
75818;SDS011;64453;51.944;9.796;2023-03-23T04:39:50;1.40;;;1.30;;
75818;SDS011;64453;51.944;9.796;2023-03-23T04:42:27;1.30;;;1.20;;
75818;SDS011;64453;51.944;9.796;2023-03-23T04:44:55;1.10;;;1.00;;
75818;SDS011;64453;51.944;9.796;2023-03-23T04:47:22;0.97;;;0.90;;
75818;SDS011;64453;51.944;9.796;2023-03-23T04:49:54;1.43;;;1.30;;
75818;SDS011;64453;51.944;9.796;2023-03-23T04:52:22;1.20;;;1.10;;
75818;SDS011;64453;51.944;9.796;2023-03-23T04:54:50;1.37;;;1.27;;
75818;SDS011;64453;51.944;9.796;2023-03-23T04:57:17;1.57;;;1.47;;
75818;SDS011;64453;51.944;9.796;2023-03-23T04:59:45;1.20;;;1.10;;
75818;SDS011;64453;51.944;9.796;2023-03-23T05:02:12;1.13;;;1.10;;
75818;SDS011;64453;51.944;9.796;2023-03-23T05:04:39;1.53;;;1.00;;
75818;SDS011;64453;51.944;9.796;2023-03-23T05:07:06;0.93;;;0.90;;
75818;SDS011;64453;51.944;9.796;2023-03-23T05:09:34;1.20;;;1.10;;
75818;SDS011;64453;51.944;9.796;2023-03-23T05:12:04;1.20;;;1.20;;
75818;SDS011;64453;51.944;9.796;2023-03-23T05:14:32;2.07;;;1.27;;
75818;SDS011;64453;51.944;9.796;2023-03-23T05:17:01;1.30;;;1.20;;
75818;SDS011;64453;51.944;9.796;2023-03-23T05:19:28;1.33;;;1.10;;
75818;SDS011;64453;51.944;9.796;2023-03-23T05:21:56;1.20;;;1.10;;
75818;SDS011;64453;51.944;9.796;2023-03-23T05:24:28;1.20;;;1.10;;
75818;SDS011;64453;51.944;9.796;2023-03-23T05:26:57;1.37;;;1.27;;
75818;SDS011;64453;51.944;9.796;2023-03-23T05:29:24;1.30;;;1.20;;
75818;SDS011;64453;51.944;9.796;2023-03-23T05:31:51;1.53;;;1.17;;
75818;SDS011;64453;51.944;9.796;2023-03-23T05:34:22;1.30;;;1.20;;
75818;SDS011;64453;51.944;9.796;2023-03-23T05:36:49;1.30;;;1.20;;
75818;SDS011;64453;51.944;9.796;2023-03-23T05:39:18;1.53;;;1.43;;
75818;SDS011;64453;51.944;9.796;2023-03-23T05:41:45;1.07;;;1.07;;
75818;SDS011;64453;51.944;9.796;2023-03-23T05:44:13;1.17;;;1.17;;
75818;SDS011;64453;51.944;9.796;2023-03-23T05:46:40;1.50;;;1.20;;
75818;SDS011;64453;51.944;9.796;2023-03-23T05:49:06;1.53;;;1.10;;
75818;SDS011;64453;51.944;9.796;2023-03-23T05:51:35;1.33;;;0.90;;
75818;SDS011;64453;51.944;9.796;2023-03-23T05:54:02;1.00;;;1.00;;
75818;SDS011;64453;51.944;9.796;2023-03-23T05:56:29;1.77;;;1.13;;
75818;SDS011;64453;51.944;9.796;2023-03-23T05:58:56;1.30;;;1.20;;
75818;SDS011;64453;51.944;9.796;2023-03-23T06:01:23;1.23;;;1.13;;
75818;SDS011;64453;51.944;9.796;2023-03-23T06:03:51;1.80;;;1.30;;
75818;SDS011;64453;51.944;9.796;2023-03-23T06:06:19;1.27;;;1.00;;
75818;SDS011;64453;51.944;9.796;2023-03-23T06:08:47;1.83;;;1.70;;
75818;SDS011;64453;51.944;9.796;2023-03-23T06:11:15;1.27;;;1.27;;
75818;SDS011;64453;51.944;9.796;2023-03-23T06:13:42;1.50;;;1.03;;
75818;SDS011;64453;51.944;9.796;2023-03-23T06:16:09;1.13;;;1.03;;
75818;SDS011;64453;51.944;9.796;2023-03-23T06:18:36;1.47;;;1.13;;
75818;SDS011;64453;51.944;9.796;2023-03-23T06:21:05;1.23;;;1.13;;
75818;SDS011;64453;51.944;9.796;2023-03-23T06:23:33;1.73;;;1.20;;
75818;SDS011;64453;51.944;9.796;2023-03-23T06:26:03;1.00;;;0.90;;
75818;SDS011;64453;51.944;9.796;2023-03-23T06:28:32;1.13;;;1.00;;
75818;SDS011;64453;51.944;9.796;2023-03-23T06:31:00;1.03;;;1.00;;
75818;SDS011;64453;51.944;9.796;2023-03-23T06:33:28;1.20;;;1.10;;
75818;SDS011;64453;51.944;9.796;2023-03-23T06:35:55;1.43;;;1.03;;
75818;SDS011;64453;51.944;9.796;2023-03-23T06:38:22;1.37;;;1.10;;
75818;SDS011;64453;51.944;9.796;2023-03-23T06:40:51;1.00;;;0.90;;
75818;SDS011;64453;51.944;9.796;2023-03-23T06:43:19;1.30;;;1.20;;
75818;SDS011;64453;51.944;9.796;2023-03-23T06:45:46;1.10;;;1.00;;
75818;SDS011;64453;51.944;9.796;2023-03-23T06:48:14;1.20;;;1.10;;
75818;SDS011;64453;51.944;9.796;2023-03-23T06:50:42;1.07;;;1.00;;
75818;SDS011;64453;51.944;9.796;2023-03-23T06:53:09;1.03;;;1.03;;
75818;SDS011;64453;51.944;9.796;2023-03-23T06:55:36;1.10;;;0.90;;
75818;SDS011;64453;51.944;9.796;2023-03-23T06:58:03;0.87;;;0.87;;
75818;SDS011;64453;51.944;9.796;2023-03-23T07:00:33;1.90;;;1.70;;
75818;SDS011;64453;51.944;9.796;2023-03-23T07:03:00;1.30;;;1.20;;
75818;SDS011;64453;51.944;9.796;2023-03-23T07:05:27;1.27;;;1.27;;
75818;SDS011;64453;51.944;9.796;2023-03-23T07:07:55;1.00;;;1.00;;
75818;SDS011;64453;51.944;9.796;2023-03-23T07:10:21;1.60;;;1.00;;
75818;SDS011;64453;51.944;9.796;2023-03-23T07:12:48;1.23;;;1.10;;
75818;SDS011;64453;51.944;9.796;2023-03-23T07:15:15;1.03;;;1.03;;
75818;SDS011;64453;51.944;9.796;2023-03-23T07:17:43;0.90;;;0.90;;
75818;SDS011;64453;51.944;9.796;2023-03-23T07:20:11;0.87;;;0.87;;
75818;SDS011;64453;51.944;9.796;2023-03-23T07:22:39;0.80;;;0.80;;
75818;SDS011;64453;51.944;9.796;2023-03-23T07:25:06;1.03;;;0.80;;
75818;SDS011;64453;51.944;9.796;2023-03-23T07:27:34;0.73;;;0.70;;
75818;SDS011;64453;51.944;9.796;2023-03-23T07:30:01;1.20;;;1.10;;
75818;SDS011;64453;51.944;9.796;2023-03-23T07:32:28;1.03;;;0.90;;
75818;SDS011;64453;51.944;9.796;2023-03-23T07:34:56;1.00;;;1.00;;
75818;SDS011;64453;51.944;9.796;2023-03-23T07:37:23;1.00;;;1.00;;
75818;SDS011;64453;51.944;9.796;2023-03-23T07:39:50;0.70;;;0.70;;
75818;SDS011;64453;51.944;9.796;2023-03-23T07:42:17;0.90;;;0.90;;
75818;SDS011;64453;51.944;9.796;2023-03-23T07:44:44;0.80;;;0.80;;
75818;SDS011;64453;51.944;9.796;2023-03-23T07:47:11;0.80;;;0.80;;
75818;SDS011;64453;51.944;9.796;2023-03-23T07:49:38;1.20;;;1.20;;
75818;SDS011;64453;51.944;9.796;2023-03-23T07:52:06;0.70;;;0.70;;
75818;SDS011;64453;51.944;9.796;2023-03-23T07:54:33;1.00;;;1.00;;
75818;SDS011;64453;51.944;9.796;2023-03-23T07:57:00;0.80;;;0.80;;
75818;SDS011;64453;51.944;9.796;2023-03-23T07:59:27;1.37;;;0.90;;
75818;SDS011;64453;51.944;9.796;2023-03-23T08:01:54;1.47;;;0.73;;
75818;SDS011;64453;51.944;9.796;2023-03-23T08:04:23;0.93;;;0.90;;
75818;SDS011;64453;51.944;9.796;2023-03-23T08:06:50;2.00;;;0.80;;
75818;SDS011;64453;51.944;9.796;2023-03-23T08:09:18;1.50;;;1.10;;
75818;SDS011;64453;51.944;9.796;2023-03-23T08:11:45;1.17;;;1.07;;
75818;SDS011;64453;51.944;9.796;2023-03-23T08:14:13;0.90;;;0.80;;
75818;SDS011;64453;51.944;9.796;2023-03-23T08:16:40;1.70;;;1.20;;
75818;SDS011;64453;51.944;9.796;2023-03-23T08:19:07;1.30;;;1.10;;
75818;SDS011;64453;51.944;9.796;2023-03-23T08:21:34;1.50;;;1.00;;
75818;SDS011;64453;51.944;9.796;2023-03-23T08:24:01;0.87;;;0.80;;
75818;SDS011;64453;51.944;9.796;2023-03-23T08:26:31;1.10;;;1.10;;
75818;SDS011;64453;51.944;9.796;2023-03-23T08:28:58;0.70;;;0.70;;
75818;SDS011;64453;51.944;9.796;2023-03-23T08:31:25;1.27;;;1.07;;
75818;SDS011;64453;51.944;9.796;2023-03-23T08:33:52;0.90;;;0.80;;
75818;SDS011;64453;51.944;9.796;2023-03-23T08:36:21;0.90;;;0.90;;
75818;SDS011;64453;51.944;9.796;2023-03-23T08:38:48;0.80;;;0.80;;
75818;SDS011;64453;51.944;9.796;2023-03-23T08:41:17;1.53;;;1.20;;
75818;SDS011;64453;51.944;9.796;2023-03-23T08:43:45;1.83;;;1.67;;
75818;SDS011;64453;51.944;9.796;2023-03-23T08:46:12;1.20;;;1.10;;
75818;SDS011;64453;51.944;9.796;2023-03-23T08:48:40;0.90;;;0.90;;
75818;SDS011;64453;51.944;9.796;2023-03-23T08:51:09;1.17;;;1.07;;
75818;SDS011;64453;51.944;9.796;2023-03-23T08:53:36;1.03;;;1.00;;
75818;SDS011;64453;51.944;9.796;2023-03-23T08:56:03;1.27;;;0.90;;
75818;SDS011;64453;51.944;9.796;2023-03-23T08:58:31;1.80;;;1.20;;
75818;SDS011;64453;51.944;9.796;2023-03-23T09:01:00;1.73;;;0.90;;
75818;SDS011;64453;51.944;9.796;2023-03-23T09:03:28;0.93;;;0.80;;
75818;SDS011;64453;51.944;9.796;2023-03-23T09:05:58;0.90;;;0.90;;
75818;SDS011;64453;51.944;9.796;2023-03-23T09:08:26;0.90;;;0.90;;
75818;SDS011;64453;51.944;9.796;2023-03-23T09:10:54;1.00;;;1.00;;
75818;SDS011;64453;51.944;9.796;2023-03-23T09:13:21;3.33;;;1.13;;
75818;SDS011;64453;51.944;9.796;2023-03-23T09:15:49;1.70;;;1.07;;
75818;SDS011;64453;51.944;9.796;2023-03-23T09:18:18;0.87;;;0.87;;
75818;SDS011;64453;51.944;9.796;2023-03-23T09:20:45;1.17;;;1.10;;
75818;SDS011;64453;51.944;9.796;2023-03-23T09:23:15;1.20;;;1.10;;
75818;SDS011;64453;51.944;9.796;2023-03-23T09:25:43;1.10;;;1.00;;
75818;SDS011;64453;51.944;9.796;2023-03-23T09:28:10;1.23;;;1.10;;
75818;SDS011;64453;51.944;9.796;2023-03-23T09:30:37;1.27;;;1.17;;
75818;SDS011;64453;51.944;9.796;2023-03-23T09:33:06;1.30;;;1.20;;
75818;SDS011;64453;51.944;9.796;2023-03-23T09:35:35;1.67;;;1.10;;
75818;SDS011;64453;51.944;9.796;2023-03-23T09:38:03;0.93;;;0.90;;
75818;SDS011;64453;51.944;9.796;2023-03-23T09:40:32;1.67;;;1.20;;
75818;SDS011;64453;51.944;9.796;2023-03-23T09:49:08;0.93;;;0.93;;
75818;SDS011;64453;51.944;9.796;2023-03-23T09:51:44;1.87;;;1.23;;
75818;SDS011;64453;51.944;9.796;2023-03-23T09:54:18;3.23;;;1.50;;
75818;SDS011;64453;51.944;9.796;2023-03-23T09:56:49;3.20;;;1.23;;
75818;SDS011;64453;51.944;9.796;2023-03-23T09:59:19;3.00;;;1.70;;
75818;SDS011;64453;51.944;9.796;2023-03-23T10:01:52;1.60;;;1.40;;
75818;SDS011;64453;51.944;9.796;2023-03-23T10:04:25;1.70;;;1.50;;
75818;SDS011;64453;51.944;9.796;2023-03-23T10:07:00;2.00;;;1.30;;
75818;SDS011;64453;51.944;9.796;2023-03-23T10:09:36;2.03;;;1.60;;
75818;SDS011;64453;51.944;9.796;2023-03-23T10:12:07;2.10;;;1.30;;
75818;SDS011;64453;51.944;9.796;2023-03-23T10:14:46;3.17;;;1.47;;
75818;SDS011;64453;51.944;9.796;2023-03-23T10:17:26;4.17;;;1.43;;
75818;SDS011;64453;51.944;9.796;2023-03-23T10:20:00;2.10;;;1.20;;
75818;SDS011;64453;51.944;9.796;2023-03-23T10:22:53;3.13;;;1.60;;
75818;SDS011;64453;51.944;9.796;2023-03-23T10:25:29;3.30;;;1.40;;
75818;SDS011;64453;51.944;9.796;2023-03-23T10:28:01;2.23;;;1.40;;
75818;SDS011;64453;51.944;9.796;2023-03-23T10:30:36;2.20;;;1.50;;
75818;SDS011;64453;51.944;9.796;2023-03-23T10:33:08;2.70;;;1.47;;
75818;SDS011;64453;51.944;9.796;2023-03-23T10:35:43;2.37;;;1.33;;
75818;SDS011;64453;51.944;9.796;2023-03-23T10:38:17;2.83;;;1.60;;
75818;SDS011;64453;51.944;9.796;2023-03-23T10:40:52;1.50;;;1.10;;
75818;SDS011;64453;51.944;9.796;2023-03-23T10:43:24;1.17;;;1.03;;
75818;SDS011;64453;51.944;9.796;2023-03-23T10:45:54;1.73;;;1.33;;
75818;SDS011;64453;51.944;9.796;2023-03-23T10:48:27;1.37;;;1.27;;
75818;SDS011;64453;51.944;9.796;2023-03-23T10:50:57;1.53;;;1.43;;
75818;SDS011;64453;51.944;9.796;2023-03-23T10:53:30;2.77;;;1.50;;
75818;SDS011;64453;51.944;9.796;2023-03-23T10:56:00;1.80;;;1.13;;
75818;SDS011;64453;51.944;9.796;2023-03-23T10:58:28;2.60;;;1.50;;
75818;SDS011;64453;51.944;9.796;2023-03-23T11:00:57;1.20;;;0.97;;
75818;SDS011;64453;51.944;9.796;2023-03-23T11:03:29;1.40;;;1.00;;
75818;SDS011;64453;51.944;9.796;2023-03-23T11:06:07;1.80;;;1.13;;
75818;SDS011;64453;51.944;9.796;2023-03-23T11:08:46;1.50;;;1.37;;
75818;SDS011;64453;51.944;9.796;2023-03-23T11:11:19;2.50;;;1.20;;
75818;SDS011;64453;51.944;9.796;2023-03-23T11:13:55;1.97;;;1.30;;
75818;SDS011;64453;51.944;9.796;2023-03-23T11:16:26;1.53;;;1.10;;
75818;SDS011;64453;51.944;9.796;2023-03-23T11:18:54;1.50;;;1.20;;
75818;SDS011;64453;51.944;9.796;2023-03-23T11:21:22;1.37;;;1.23;;
75818;SDS011;64453;51.944;9.796;2023-03-23T11:23:52;1.53;;;1.20;;
75818;SDS011;64453;51.944;9.796;2023-03-23T11:26:23;1.60;;;1.10;;
75818;SDS011;64453;51.944;9.796;2023-03-23T11:28:55;1.70;;;1.33;;
75818;SDS011;64453;51.944;9.796;2023-03-23T11:31:32;1.20;;;1.10;;
75818;SDS011;64453;51.944;9.796;2023-03-23T11:34:01;2.33;;;1.37;;
75818;SDS011;64453;51.944;9.796;2023-03-23T11:36:31;1.27;;;1.17;;
75818;SDS011;64453;51.944;9.796;2023-03-23T11:39:02;1.63;;;1.47;;
75818;SDS011;64453;51.944;9.796;2023-03-23T11:41:32;1.33;;;1.10;;
75818;SDS011;64453;51.944;9.796;2023-03-23T11:44:08;2.90;;;1.73;;
75818;SDS011;64453;51.944;9.796;2023-03-23T11:46:39;3.17;;;1.30;;
75818;SDS011;64453;51.944;9.796;2023-03-23T11:49:18;3.20;;;1.43;;
75818;SDS011;64453;51.944;9.796;2023-03-23T11:51:56;5.00;;;1.50;;
75818;SDS011;64453;51.944;9.796;2023-03-23T11:54:33;2.70;;;1.37;;
75818;SDS011;64453;51.944;9.796;2023-03-23T11:57:06;2.93;;;1.60;;
75818;SDS011;64453;51.944;9.796;2023-03-23T11:59:38;4.20;;;1.80;;
75818;SDS011;64453;51.944;9.796;2023-03-23T12:02:10;3.83;;;1.77;;
75818;SDS011;64453;51.944;9.796;2023-03-23T12:04:56;2.50;;;1.27;;
75818;SDS011;64453;51.944;9.796;2023-03-23T12:07:47;4.57;;;1.60;;
75818;SDS011;64453;51.944;9.796;2023-03-23T12:10:26;2.30;;;1.30;;
75818;SDS011;64453;51.944;9.796;2023-03-23T12:13:05;1.97;;;1.00;;
75818;SDS011;64453;51.944;9.796;2023-03-23T12:15:45;2.33;;;1.53;;
75818;SDS011;64453;51.944;9.796;2023-03-23T12:18:22;1.50;;;1.40;;
75818;SDS011;64453;51.944;9.796;2023-03-23T12:21:09;1.60;;;1.50;;
75818;SDS011;64453;51.944;9.796;2023-03-23T12:24:01;3.03;;;1.83;;
75818;SDS011;64453;51.944;9.796;2023-03-23T12:26:45;2.97;;;1.40;;
75818;SDS011;64453;51.944;9.796;2023-03-23T12:29:27;3.50;;;1.60;;
75818;SDS011;64453;51.944;9.796;2023-03-23T12:32:20;3.07;;;1.50;;
75818;SDS011;64453;51.944;9.796;2023-03-23T12:35:01;3.40;;;1.60;;
75818;SDS011;64453;51.944;9.796;2023-03-23T12:37:52;2.43;;;2.23;;
75818;SDS011;64453;51.944;9.796;2023-03-23T12:40:39;2.50;;;1.57;;
75818;SDS011;64453;51.944;9.796;2023-03-23T12:43:28;2.80;;;1.10;;
75818;SDS011;64453;51.944;9.796;2023-03-23T12:46:13;1.93;;;1.23;;
75818;SDS011;64453;51.944;9.796;2023-03-23T12:49:18;1.87;;;1.17;;
75818;SDS011;64453;51.944;9.796;2023-03-23T12:51:49;2.50;;;1.47;;
75818;SDS011;64453;51.944;9.796;2023-03-23T12:54:25;3.57;;;1.37;;
75818;SDS011;64453;51.944;9.796;2023-03-23T12:56:58;2.70;;;1.50;;
75818;SDS011;64453;51.944;9.796;2023-03-23T12:59:35;2.00;;;1.30;;
75818;SDS011;64453;51.944;9.796;2023-03-23T13:02:12;3.93;;;1.30;;
75818;SDS011;64453;51.944;9.796;2023-03-23T13:04:47;1.47;;;1.20;;
75818;SDS011;64453;51.944;9.796;2023-03-23T13:07:18;3.53;;;1.43;;
75818;SDS011;64453;51.944;9.796;2023-03-23T13:09:52;2.10;;;1.40;;
75818;SDS011;64453;51.944;9.796;2023-03-23T13:12:27;2.27;;;1.60;;
75818;SDS011;64453;51.944;9.796;2023-03-23T13:14:59;3.73;;;1.40;;
75818;SDS011;64453;51.944;9.796;2023-03-23T13:17:43;2.50;;;1.70;;
75818;SDS011;64453;51.944;9.796;2023-03-23T13:20:27;1.90;;;1.43;;
75818;SDS011;64453;51.944;9.796;2023-03-23T13:23:20;4.20;;;1.70;;
75818;SDS011;64453;51.944;9.796;2023-03-23T13:25:50;1.47;;;1.37;;
75818;SDS011;64453;51.944;9.796;2023-03-23T13:28:23;3.40;;;1.60;;
75818;SDS011;64453;51.944;9.796;2023-03-23T13:30:56;2.60;;;1.77;;
75818;SDS011;64453;51.944;9.796;2023-03-23T13:33:28;4.53;;;1.57;;
75818;SDS011;64453;51.944;9.796;2023-03-23T13:36:04;4.13;;;2.43;;
75818;SDS011;64453;51.944;9.796;2023-03-23T13:38:36;3.60;;;1.60;;
75818;SDS011;64453;51.944;9.796;2023-03-23T13:41:08;3.93;;;1.70;;
75818;SDS011;64453;51.944;9.796;2023-03-23T13:43:38;1.80;;;1.40;;
75818;SDS011;64453;51.944;9.796;2023-03-23T13:46:12;3.60;;;1.53;;
75818;SDS011;64453;51.944;9.796;2023-03-23T13:49:13;1.50;;;1.30;;
75818;SDS011;64453;51.944;9.796;2023-03-23T13:51:53;1.97;;;1.40;;
75818;SDS011;64453;51.944;9.796;2023-03-23T13:54:42;2.13;;;1.50;;
75818;SDS011;64453;51.944;9.796;2023-03-23T13:57:25;3.00;;;1.50;;
75818;SDS011;64453;51.944;9.796;2023-03-23T14:00:09;1.63;;;1.30;;
75818;SDS011;64453;51.944;9.796;2023-03-23T14:02:59;2.07;;;1.60;;
75818;SDS011;64453;51.944;9.796;2023-03-23T14:05:34;3.07;;;1.43;;
75818;SDS011;64453;51.944;9.796;2023-03-23T14:08:10;2.20;;;1.57;;
75818;SDS011;64453;51.944;9.796;2023-03-23T14:10:41;2.00;;;1.33;;
75818;SDS011;64453;51.944;9.796;2023-03-23T14:13:16;1.57;;;1.30;;
75818;SDS011;64453;51.944;9.796;2023-03-23T14:15:55;5.03;;;1.50;;
75818;SDS011;64453;51.944;9.796;2023-03-23T14:18:28;1.60;;;1.50;;
75818;SDS011;64453;51.944;9.796;2023-03-23T14:21:02;2.20;;;1.70;;
75818;SDS011;64453;51.944;9.796;2023-03-23T14:23:30;2.37;;;1.40;;
75818;SDS011;64453;51.944;9.796;2023-03-23T14:26:00;3.27;;;2.00;;
75818;SDS011;64453;51.944;9.796;2023-03-23T14:28:37;2.10;;;1.57;;
75818;SDS011;64453;51.944;9.796;2023-03-23T14:31:12;2.23;;;1.70;;
75818;SDS011;64453;51.944;9.796;2023-03-23T14:33:46;1.73;;;1.60;;
75818;SDS011;64453;51.944;9.796;2023-03-23T14:36:14;2.60;;;1.90;;
75818;SDS011;64453;51.944;9.796;2023-03-23T14:38:46;1.80;;;1.47;;
75818;SDS011;64453;51.944;9.796;2023-03-23T14:41:13;1.50;;;1.40;;
75818;SDS011;64453;51.944;9.796;2023-03-23T14:43:40;3.80;;;1.70;;
75818;SDS011;64453;51.944;9.796;2023-03-23T14:46:08;1.67;;;1.50;;
75818;SDS011;64453;51.944;9.796;2023-03-23T14:48:37;1.40;;;1.30;;
75818;SDS011;64453;51.944;9.796;2023-03-23T14:51:06;3.03;;;1.60;;
75818;SDS011;64453;51.944;9.796;2023-03-23T14:53:44;1.37;;;1.27;;
75818;SDS011;64453;51.944;9.796;2023-03-23T14:56:11;4.00;;;2.07;;
75818;SDS011;64453;51.944;9.796;2023-03-23T14:58:43;2.33;;;2.13;;
75818;SDS011;64453;51.944;9.796;2023-03-23T15:01:10;2.23;;;2.03;;
75818;SDS011;64453;51.944;9.796;2023-03-23T15:03:43;3.67;;;2.10;;
75818;SDS011;64453;51.944;9.796;2023-03-23T15:06:19;2.67;;;1.57;;
75818;SDS011;64453;51.944;9.796;2023-03-23T15:08:50;1.87;;;1.40;;
75818;SDS011;64453;51.944;9.796;2023-03-23T15:11:23;3.00;;;2.10;;
75818;SDS011;64453;51.944;9.796;2023-03-23T15:13:55;3.10;;;1.60;;
75818;SDS011;64453;51.944;9.796;2023-03-23T15:16:29;3.90;;;2.57;;
75818;SDS011;64453;51.944;9.796;2023-03-23T15:18:58;2.60;;;2.40;;
75818;SDS011;64453;51.944;9.796;2023-03-23T15:21:29;4.17;;;2.13;;
75818;SDS011;64453;51.944;9.796;2023-03-23T15:23:59;3.77;;;2.40;;